sensor_id;sensor_type;location;lat;lon;timestamp;temperature;humidity
37412;DHT22;23278;52.110;6.050;2022-11-20T00:02:18;-1.80;85.80
37412;DHT22;23278;52.110;6.050;2022-11-20T00:04:44;-1.80;85.50
37412;DHT22;23278;52.110;6.050;2022-11-20T00:07:10;-1.80;85.70
37412;DHT22;23278;52.110;6.050;2022-11-20T00:09:36;-1.80;86.00
37412;DHT22;23278;52.110;6.050;2022-11-20T00:12:02;-1.80;86.20
37412;DHT22;23278;52.110;6.050;2022-11-20T00:14:28;-1.90;86.20
37412;DHT22;23278;52.110;6.050;2022-11-20T00:16:53;-1.90;86.70
37412;DHT22;23278;52.110;6.050;2022-11-20T00:19:19;-1.90;86.90
37412;DHT22;23278;52.110;6.050;2022-11-20T00:21:45;-2.00;87.10
37412;DHT22;23278;52.110;6.050;2022-11-20T00:24:11;-2.00;87.10
37412;DHT22;23278;52.110;6.050;2022-11-20T00:26:37;-2.00;87.20
37412;DHT22;23278;52.110;6.050;2022-11-20T00:29:03;-2.00;87.60
37412;DHT22;23278;52.110;6.050;2022-11-20T00:31:30;-2.10;87.60
37412;DHT22;23278;52.110;6.050;2022-11-20T00:33:56;-2.10;87.70
37412;DHT22;23278;52.110;6.050;2022-11-20T00:36:24;-2.10;87.90
37412;DHT22;23278;52.110;6.050;2022-11-20T00:38:55;-2.10;88.10
37412;DHT22;23278;52.110;6.050;2022-11-20T00:41:22;-2.20;88.10
37412;DHT22;23278;52.110;6.050;2022-11-20T00:43:49;-2.20;88.40
37412;DHT22;23278;52.110;6.050;2022-11-20T00:46:17;-2.20;88.50
37412;DHT22;23278;52.110;6.050;2022-11-20T00:48:44;-2.20;88.80
37412;DHT22;23278;52.110;6.050;2022-11-20T00:51:12;-2.20;89.00
37412;DHT22;23278;52.110;6.050;2022-11-20T00:53:38;-2.20;88.90
37412;DHT22;23278;52.110;6.050;2022-11-20T00:56:07;-2.20;89.10
37412;DHT22;23278;52.110;6.050;2022-11-20T00:58:36;-2.30;89.30
37412;DHT22;23278;52.110;6.050;2022-11-20T01:01:05;-2.30;89.40
37412;DHT22;23278;52.110;6.050;2022-11-20T01:03:36;-2.30;89.50
37412;DHT22;23278;52.110;6.050;2022-11-20T01:06:04;-2.40;89.50
37412;DHT22;23278;52.110;6.050;2022-11-20T01:08:32;-2.40;90.00
37412;DHT22;23278;52.110;6.050;2022-11-20T01:11:03;-2.40;90.00
37412;DHT22;23278;52.110;6.050;2022-11-20T01:13:30;-2.50;90.00
37412;DHT22;23278;52.110;6.050;2022-11-20T01:16:30;-2.50;90.20
37412;DHT22;23278;52.110;6.050;2022-11-20T01:19:00;-2.60;90.00
37412;DHT22;23278;52.110;6.050;2022-11-20T01:21:29;-2.60;90.00
37412;DHT22;23278;52.110;6.050;2022-11-20T01:23:56;-2.60;90.10
37412;DHT22;23278;52.110;6.050;2022-11-20T01:26:25;-2.60;90.20
37412;DHT22;23278;52.110;6.050;2022-11-20T01:28:51;-2.60;90.30
37412;DHT22;23278;52.110;6.050;2022-11-20T01:31:29;-2.60;90.30
37412;DHT22;23278;52.110;6.050;2022-11-20T01:34:00;-2.70;90.50
37412;DHT22;23278;52.110;6.050;2022-11-20T01:36:29;-2.70;90.50
37412;DHT22;23278;52.110;6.050;2022-11-20T01:38:57;-2.70;90.50
37412;DHT22;23278;52.110;6.050;2022-11-20T01:41:25;-2.70;90.50
37412;DHT22;23278;52.110;6.050;2022-11-20T01:44:12;-2.70;90.60
37412;DHT22;23278;52.110;6.050;2022-11-20T01:46:48;-2.70;90.70
37412;DHT22;23278;52.110;6.050;2022-11-20T01:49:21;-2.80;90.70
37412;DHT22;23278;52.110;6.050;2022-11-20T01:51:56;-2.80;90.80
37412;DHT22;23278;52.110;6.050;2022-11-20T01:54:30;-2.80;90.90
37412;DHT22;23278;52.110;6.050;2022-11-20T01:56:58;-2.80;90.90
37412;DHT22;23278;52.110;6.050;2022-11-20T01:59:25;-2.80;91.00
37412;DHT22;23278;52.110;6.050;2022-11-20T02:01:52;-2.80;91.00
37412;DHT22;23278;52.110;6.050;2022-11-20T02:04:18;-2.80;91.00
37412;DHT22;23278;52.110;6.050;2022-11-20T02:06:51;-2.80;91.10
37412;DHT22;23278;52.110;6.050;2022-11-20T02:09:19;-2.80;91.20
37412;DHT22;23278;52.110;6.050;2022-11-20T02:11:45;-2.90;91.30
37412;DHT22;23278;52.110;6.050;2022-11-20T02:14:11;-2.90;91.30
37412;DHT22;23278;52.110;6.050;2022-11-20T02:16:39;-2.90;91.40
37412;DHT22;23278;52.110;6.050;2022-11-20T02:19:17;-2.90;91.40
37412;DHT22;23278;52.110;6.050;2022-11-20T02:21:49;-2.90;91.50
37412;DHT22;23278;52.110;6.050;2022-11-20T02:24:18;-2.90;91.50
37412;DHT22;23278;52.110;6.050;2022-11-20T02:27:29;-3.00;91.50
37412;DHT22;23278;52.110;6.050;2022-11-20T02:30:05;-3.00;91.50
37412;DHT22;23278;52.110;6.050;2022-11-20T02:32:37;-3.00;91.50
37412;DHT22;23278;52.110;6.050;2022-11-20T02:35:37;-3.00;91.50
37412;DHT22;23278;52.110;6.050;2022-11-20T02:37:56;-3.00;91.60
37412;DHT22;23278;52.110;6.050;2022-11-20T02:40:22;-3.10;91.60
37412;DHT22;23278;52.110;6.050;2022-11-20T02:42:52;-3.10;91.60
37412;DHT22;23278;52.110;6.050;2022-11-20T02:45:18;-3.10;91.60
37412;DHT22;23278;52.110;6.050;2022-11-20T02:47:44;-3.20;91.70
37412;DHT22;23278;52.110;6.050;2022-11-20T02:50:10;-3.20;91.90
37412;DHT22;23278;52.110;6.050;2022-11-20T02:52:36;-3.20;91.90
37412;DHT22;23278;52.110;6.050;2022-11-20T02:55:02;-3.20;91.80
37412;DHT22;23278;52.110;6.050;2022-11-20T02:57:28;-3.30;91.90
37412;DHT22;23278;52.110;6.050;2022-11-20T02:59:54;-3.30;92.00
37412;DHT22;23278;52.110;6.050;2022-11-20T03:02:20;-3.30;92.00
37412;DHT22;23278;52.110;6.050;2022-11-20T03:04:46;-3.30;92.00
37412;DHT22;23278;52.110;6.050;2022-11-20T03:07:12;-3.30;92.00
37412;DHT22;23278;52.110;6.050;2022-11-20T03:09:38;-3.30;92.10
37412;DHT22;23278;52.110;6.050;2022-11-20T03:12:04;-3.30;92.20
37412;DHT22;23278;52.110;6.050;2022-11-20T03:14:30;-3.40;92.20
37412;DHT22;23278;52.110;6.050;2022-11-20T03:16:56;-3.40;92.30
37412;DHT22;23278;52.110;6.050;2022-11-20T03:19:22;-3.30;92.40
37412;DHT22;23278;52.110;6.050;2022-11-20T03:21:48;-3.40;92.40
37412;DHT22;23278;52.110;6.050;2022-11-20T03:24:15;-3.40;92.40
37412;DHT22;23278;52.110;6.050;2022-11-20T03:26:41;-3.40;92.30
37412;DHT22;23278;52.110;6.050;2022-11-20T03:29:07;-3.40;92.30
37412;DHT22;23278;52.110;6.050;2022-11-20T03:31:38;-3.40;92.30
37412;DHT22;23278;52.110;6.050;2022-11-20T03:34:06;-3.50;92.40
37412;DHT22;23278;52.110;6.050;2022-11-20T03:36:33;-3.50;92.40
37412;DHT22;23278;52.110;6.050;2022-11-20T03:38:59;-3.50;92.40
37412;DHT22;23278;52.110;6.050;2022-11-20T03:41:29;-3.50;92.40
37412;DHT22;23278;52.110;6.050;2022-11-20T03:44:00;-3.50;92.50
37412;DHT22;23278;52.110;6.050;2022-11-20T03:46:27;-3.50;92.50
37412;DHT22;23278;52.110;6.050;2022-11-20T03:48:54;-3.50;92.50
37412;DHT22;23278;52.110;6.050;2022-11-20T03:53:52;-3.50;92.60
37412;DHT22;23278;52.110;6.050;2022-11-20T03:56:22;-3.50;92.60
37412;DHT22;23278;52.110;6.050;2022-11-20T03:58:48;-3.50;92.60
37412;DHT22;23278;52.110;6.050;2022-11-20T04:01:16;-3.50;92.70
37412;DHT22;23278;52.110;6.050;2022-11-20T04:03:43;-3.50;92.70
37412;DHT22;23278;52.110;6.050;2022-11-20T04:06:20;-3.50;92.70
37412;DHT22;23278;52.110;6.050;2022-11-20T04:08:46;-3.50;92.80
37412;DHT22;23278;52.110;6.050;2022-11-20T04:11:16;-3.60;92.90
37412;DHT22;23278;52.110;6.050;2022-11-20T04:13:45;-3.60;92.80
37412;DHT22;23278;52.110;6.050;2022-11-20T04:16:11;-3.60;92.80
37412;DHT22;23278;52.110;6.050;2022-11-20T04:18:37;-3.60;92.80
37412;DHT22;23278;52.110;6.050;2022-11-20T04:21:04;-3.60;92.90
37412;DHT22;23278;52.110;6.050;2022-11-20T04:23:30;-3.70;92.90
37412;DHT22;23278;52.110;6.050;2022-11-20T04:26:10;-3.70;92.90
37412;DHT22;23278;52.110;6.050;2022-11-20T04:28:36;-3.70;92.90
37412;DHT22;23278;52.110;6.050;2022-11-20T04:31:10;-3.70;92.90
37412;DHT22;23278;52.110;6.050;2022-11-20T04:33:37;-3.70;93.00
37412;DHT22;23278;52.110;6.050;2022-11-20T04:36:11;-3.70;93.00
37412;DHT22;23278;52.110;6.050;2022-11-20T04:38:37;-3.70;93.00
37412;DHT22;23278;52.110;6.050;2022-11-20T04:41:05;-3.70;93.00
37412;DHT22;23278;52.110;6.050;2022-11-20T04:43:32;-3.70;93.00
37412;DHT22;23278;52.110;6.050;2022-11-20T04:45:59;-3.70;93.10
37412;DHT22;23278;52.110;6.050;2022-11-20T04:48:27;-3.70;93.10
37412;DHT22;23278;52.110;6.050;2022-11-20T04:50:53;-3.70;93.20
37412;DHT22;23278;52.110;6.050;2022-11-20T04:53:20;-3.70;93.20
37412;DHT22;23278;52.110;6.050;2022-11-20T04:55:46;-3.80;93.10
37412;DHT22;23278;52.110;6.050;2022-11-20T04:58:13;-3.80;93.30
37412;DHT22;23278;52.110;6.050;2022-11-20T05:00:39;-3.80;93.20
37412;DHT22;23278;52.110;6.050;2022-11-20T05:03:05;-3.80;93.20
37412;DHT22;23278;52.110;6.050;2022-11-20T05:05:33;-3.80;93.20
37412;DHT22;23278;52.110;6.050;2022-11-20T05:07:59;-3.80;93.20
37412;DHT22;23278;52.110;6.050;2022-11-20T05:10:26;-3.70;93.20
37412;DHT22;23278;52.110;6.050;2022-11-20T05:12:52;-3.80;93.20
37412;DHT22;23278;52.110;6.050;2022-11-20T05:15:18;-3.80;93.20
37412;DHT22;23278;52.110;6.050;2022-11-20T05:17:48;-3.80;93.20
37412;DHT22;23278;52.110;6.050;2022-11-20T05:20:14;-3.90;93.20
37412;DHT22;23278;52.110;6.050;2022-11-20T05:22:40;-3.80;93.20
37412;DHT22;23278;52.110;6.050;2022-11-20T05:25:06;-3.90;93.10
37412;DHT22;23278;52.110;6.050;2022-11-20T05:27:32;-3.90;93.20
37412;DHT22;23278;52.110;6.050;2022-11-20T05:29:58;-4.00;93.40
37412;DHT22;23278;52.110;6.050;2022-11-20T05:32:24;-4.00;93.20
37412;DHT22;23278;52.110;6.050;2022-11-20T05:34:53;-3.90;93.30
37412;DHT22;23278;52.110;6.050;2022-11-20T05:37:19;-4.00;93.30
37412;DHT22;23278;52.110;6.050;2022-11-20T05:39:45;-3.90;93.40
37412;DHT22;23278;52.110;6.050;2022-11-20T05:42:11;-3.90;93.40
37412;DHT22;23278;52.110;6.050;2022-11-20T05:45:00;-3.90;93.40
37412;DHT22;23278;52.110;6.050;2022-11-20T05:47:27;-3.90;93.50
37412;DHT22;23278;52.110;6.050;2022-11-20T05:49:54;-4.00;93.40
37412;DHT22;23278;52.110;6.050;2022-11-20T05:52:19;-3.90;93.50
37412;DHT22;23278;52.110;6.050;2022-11-20T05:54:45;-3.90;93.50
37412;DHT22;23278;52.110;6.050;2022-11-20T05:57:11;-4.00;93.60
37412;DHT22;23278;52.110;6.050;2022-11-20T05:59:37;-4.00;93.70
37412;DHT22;23278;52.110;6.050;2022-11-20T06:02:03;-4.00;93.80
37412;DHT22;23278;52.110;6.050;2022-11-20T06:04:29;-4.00;93.70
37412;DHT22;23278;52.110;6.050;2022-11-20T06:06:54;-4.10;93.60
37412;DHT22;23278;52.110;6.050;2022-11-20T06:09:20;-4.10;93.70
37412;DHT22;23278;52.110;6.050;2022-11-20T06:11:46;-4.20;93.70
37412;DHT22;23278;52.110;6.050;2022-11-20T06:14:12;-4.20;93.80
37412;DHT22;23278;52.110;6.050;2022-11-20T06:16:38;-4.20;93.80
37412;DHT22;23278;52.110;6.050;2022-11-20T06:19:03;-4.20;93.80
37412;DHT22;23278;52.110;6.050;2022-11-20T06:21:29;-4.20;93.90
37412;DHT22;23278;52.110;6.050;2022-11-20T06:23:55;-4.20;93.90
37412;DHT22;23278;52.110;6.050;2022-11-20T06:26:26;-4.10;93.90
37412;DHT22;23278;52.110;6.050;2022-11-20T06:28:53;-4.20;93.90
37412;DHT22;23278;52.110;6.050;2022-11-20T06:31:23;-4.20;93.80
37412;DHT22;23278;52.110;6.050;2022-11-20T06:33:49;-4.20;93.80
37412;DHT22;23278;52.110;6.050;2022-11-20T06:36:17;-4.20;93.90
37412;DHT22;23278;52.110;6.050;2022-11-20T06:38:44;-4.20;93.90
37412;DHT22;23278;52.110;6.050;2022-11-20T06:41:13;-4.20;93.90
37412;DHT22;23278;52.110;6.050;2022-11-20T06:43:39;-4.20;93.90
37412;DHT22;23278;52.110;6.050;2022-11-20T06:46:05;-4.20;94.00
37412;DHT22;23278;52.110;6.050;2022-11-20T06:48:31;-4.20;94.00
37412;DHT22;23278;52.110;6.050;2022-11-20T06:50:58;-4.20;94.00
37412;DHT22;23278;52.110;6.050;2022-11-20T06:53:24;-4.20;93.90
37412;DHT22;23278;52.110;6.050;2022-11-20T06:55:51;-4.30;93.90
37412;DHT22;23278;52.110;6.050;2022-11-20T06:58:17;-4.30;93.90
37412;DHT22;23278;52.110;6.050;2022-11-20T07:00:44;-4.30;94.00
37412;DHT22;23278;52.110;6.050;2022-11-20T07:03:11;-4.30;94.00
37412;DHT22;23278;52.110;6.050;2022-11-20T07:05:37;-4.30;94.00
37412;DHT22;23278;52.110;6.050;2022-11-20T07:08:04;-4.30;94.00
37412;DHT22;23278;52.110;6.050;2022-11-20T07:10:31;-4.30;94.10
37412;DHT22;23278;52.110;6.050;2022-11-20T07:12:57;-4.30;94.00
37412;DHT22;23278;52.110;6.050;2022-11-20T07:15:24;-4.30;94.20
37412;DHT22;23278;52.110;6.050;2022-11-20T07:17:49;-4.40;94.00
37412;DHT22;23278;52.110;6.050;2022-11-20T07:20:16;-4.30;94.10
37412;DHT22;23278;52.110;6.050;2022-11-20T07:22:42;-4.30;94.10
37412;DHT22;23278;52.110;6.050;2022-11-20T07:25:09;-4.30;94.10
37412;DHT22;23278;52.110;6.050;2022-11-20T07:27:35;-4.20;94.20
37412;DHT22;23278;52.110;6.050;2022-11-20T07:30:03;-4.20;94.10
37412;DHT22;23278;52.110;6.050;2022-11-20T07:32:30;-4.10;94.10
37412;DHT22;23278;52.110;6.050;2022-11-20T07:34:56;-4.10;94.20
37412;DHT22;23278;52.110;6.050;2022-11-20T07:37:21;-4.10;94.20
37412;DHT22;23278;52.110;6.050;2022-11-20T07:39:47;-4.00;94.20
37412;DHT22;23278;52.110;6.050;2022-11-20T07:42:13;-4.00;94.20
37412;DHT22;23278;52.110;6.050;2022-11-20T07:44:39;-3.90;94.30
37412;DHT22;23278;52.110;6.050;2022-11-20T07:47:05;-3.90;94.30
37412;DHT22;23278;52.110;6.050;2022-11-20T07:49:31;-3.80;94.40
37412;DHT22;23278;52.110;6.050;2022-11-20T07:51:56;-3.70;94.40
37412;DHT22;23278;52.110;6.050;2022-11-20T07:54:23;-3.60;94.40
37412;DHT22;23278;52.110;6.050;2022-11-20T07:56:49;-3.30;94.70
37412;DHT22;23278;52.110;6.050;2022-11-20T07:59:15;-3.00;94.90
37412;DHT22;23278;52.110;6.050;2022-11-20T08:01:42;-2.60;95.00
37412;DHT22;23278;52.110;6.050;2022-11-20T08:04:09;-2.10;95.10
37412;DHT22;23278;52.110;6.050;2022-11-20T08:06:36;-1.70;94.50
37412;DHT22;23278;52.110;6.050;2022-11-20T08:09:02;-1.40;94.30
37412;DHT22;23278;52.110;6.050;2022-11-20T08:11:28;-1.00;94.20
37412;DHT22;23278;52.110;6.050;2022-11-20T08:14:13;-0.60;94.10
37412;DHT22;23278;52.110;6.050;2022-11-20T08:16:44;-0.20;93.80
37412;DHT22;23278;52.110;6.050;2022-11-20T08:19:11;0.20;93.50
37412;DHT22;23278;52.110;6.050;2022-11-20T08:21:37;0.50;93.30
37412;DHT22;23278;52.110;6.050;2022-11-20T08:24:03;0.90;93.30
37412;DHT22;23278;52.110;6.050;2022-11-20T08:26:29;1.10;93.20
37412;DHT22;23278;52.110;6.050;2022-11-20T08:28:56;1.40;93.10
37412;DHT22;23278;52.110;6.050;2022-11-20T08:31:23;1.60;92.70
37412;DHT22;23278;52.110;6.050;2022-11-20T08:33:50;1.80;92.80
37412;DHT22;23278;52.110;6.050;2022-11-20T08:36:16;2.10;92.60
37412;DHT22;23278;52.110;6.050;2022-11-20T08:38:42;2.20;92.20
37412;DHT22;23278;52.110;6.050;2022-11-20T08:41:08;2.20;92.10
37412;DHT22;23278;52.110;6.050;2022-11-20T08:43:57;2.30;92.10
37412;DHT22;23278;52.110;6.050;2022-11-20T08:46:25;2.70;92.10
37412;DHT22;23278;52.110;6.050;2022-11-20T08:48:51;3.00;91.80
37412;DHT22;23278;52.110;6.050;2022-11-20T08:51:17;3.00;91.30
37412;DHT22;23278;52.110;6.050;2022-11-20T08:53:43;2.80;91.00
37412;DHT22;23278;52.110;6.050;2022-11-20T08:56:09;2.60;91.00
37412;DHT22;23278;52.110;6.050;2022-11-20T08:58:36;2.30;91.20
37412;DHT22;23278;52.110;6.050;2022-11-20T09:01:02;2.20;91.50
37412;DHT22;23278;52.110;6.050;2022-11-20T09:03:28;2.20;91.60
37412;DHT22;23278;52.110;6.050;2022-11-20T09:06:06;2.20;91.80
37412;DHT22;23278;52.110;6.050;2022-11-20T09:08:32;2.50;92.20
37412;DHT22;23278;52.110;6.050;2022-11-20T09:10:59;3.10;92.40
37412;DHT22;23278;52.110;6.050;2022-11-20T09:13:26;3.90;92.00
37412;DHT22;23278;52.110;6.050;2022-11-20T09:15:57;4.80;91.40
37412;DHT22;23278;52.110;6.050;2022-11-20T09:18:25;5.80;90.30
37412;DHT22;23278;52.110;6.050;2022-11-20T09:20:51;6.70;87.80
37412;DHT22;23278;52.110;6.050;2022-11-20T09:23:17;7.60;85.30
37412;DHT22;23278;52.110;6.050;2022-11-20T09:25:43;8.20;80.80
37412;DHT22;23278;52.110;6.050;2022-11-20T09:28:09;8.40;78.60
37412;DHT22;23278;52.110;6.050;2022-11-20T09:30:35;8.10;76.90
37412;DHT22;23278;52.110;6.050;2022-11-20T09:33:04;7.50;76.90
37412;DHT22;23278;52.110;6.050;2022-11-20T09:35:30;6.90;77.40
37412;DHT22;23278;52.110;6.050;2022-11-20T09:37:56;6.40;78.10
37412;DHT22;23278;52.110;6.050;2022-11-20T09:40:22;6.10;79.00
37412;DHT22;23278;52.110;6.050;2022-11-20T09:46:17;5.60;79.40
37412;DHT22;23278;52.110;6.050;2022-11-20T09:49:23;5.40;79.40
37412;DHT22;23278;52.110;6.050;2022-11-20T09:54:34;5.10;79.80
37412;DHT22;23278;52.110;6.050;2022-11-20T09:57:22;5.00;79.90
37412;DHT22;23278;52.110;6.050;2022-11-20T09:59:53;5.00;80.30
37412;DHT22;23278;52.110;6.050;2022-11-20T10:03:00;4.90;80.40
37412;DHT22;23278;52.110;6.050;2022-11-20T10:05:31;4.90;80.60
37412;DHT22;23278;52.110;6.050;2022-11-20T10:10:34;5.00;80.80
37412;DHT22;23278;52.110;6.050;2022-11-20T10:13:19;5.10;80.70
37412;DHT22;23278;52.110;6.050;2022-11-20T10:18:38;5.30;80.50
37412;DHT22;23278;52.110;6.050;2022-11-20T10:24:44;5.60;80.30
37412;DHT22;23278;52.110;6.050;2022-11-20T10:29:36;5.80;80.40
37412;DHT22;23278;52.110;6.050;2022-11-20T10:32:15;5.80;80.50
37412;DHT22;23278;52.110;6.050;2022-11-20T10:34:54;5.90;80.60
37412;DHT22;23278;52.110;6.050;2022-11-20T10:37:28;6.00;80.50
37412;DHT22;23278;52.110;6.050;2022-11-20T10:42:49;6.20;80.20
37412;DHT22;23278;52.110;6.050;2022-11-20T10:48:12;6.20;80.50
37412;DHT22;23278;52.110;6.050;2022-11-20T10:50:49;6.30;80.60
37412;DHT22;23278;52.110;6.050;2022-11-20T10:53:43;6.50;80.60
37412;DHT22;23278;52.110;6.050;2022-11-20T10:56:40;6.80;80.50
37412;DHT22;23278;52.110;6.050;2022-11-20T11:01:48;7.70;80.10
37412;DHT22;23278;52.110;6.050;2022-11-20T11:04:39;8.40;80.20
37412;DHT22;23278;52.110;6.050;2022-11-20T11:07:27;9.20;79.30
37412;DHT22;23278;52.110;6.050;2022-11-20T11:09:56;9.50;78.60
37412;DHT22;23278;52.110;6.050;2022-11-20T11:12:25;9.60;78.30
37412;DHT22;23278;52.110;6.050;2022-11-20T11:14:53;9.90;78.30
37412;DHT22;23278;52.110;6.050;2022-11-20T11:17:31;10.40;78.10
37412;DHT22;23278;52.110;6.050;2022-11-20T11:20:11;11.20;77.10
37412;DHT22;23278;52.110;6.050;2022-11-20T11:22:49;12.00;75.10
37412;DHT22;23278;52.110;6.050;2022-11-20T11:25:24;12.90;73.00
37412;DHT22;23278;52.110;6.050;2022-11-20T11:27:51;13.10;70.40
37412;DHT22;23278;52.110;6.050;2022-11-20T11:30:19;12.90;68.80
37412;DHT22;23278;52.110;6.050;2022-11-20T11:32:46;12.60;68.70
37412;DHT22;23278;52.110;6.050;2022-11-20T11:35:24;12.60;68.80
37412;DHT22;23278;52.110;6.050;2022-11-20T11:37:51;12.70;68.60
37412;DHT22;23278;52.110;6.050;2022-11-20T11:40:21;12.60;68.30
37412;DHT22;23278;52.110;6.050;2022-11-20T11:42:59;12.20;67.90
37412;DHT22;23278;52.110;6.050;2022-11-20T11:45:25;11.70;67.70
37412;DHT22;23278;52.110;6.050;2022-11-20T11:47:54;11.20;68.10
37412;DHT22;23278;52.110;6.050;2022-11-20T11:50:47;10.70;67.80
37412;DHT22;23278;52.110;6.050;2022-11-20T11:53:18;10.10;68.20
37412;DHT22;23278;52.110;6.050;2022-11-20T11:58:33;9.50;69.20
37412;DHT22;23278;52.110;6.050;2022-11-20T12:06:58;9.20;69.70
37412;DHT22;23278;52.110;6.050;2022-11-20T12:09:36;8.90;69.80
37412;DHT22;23278;52.110;6.050;2022-11-20T12:12:32;8.50;70.20
37412;DHT22;23278;52.110;6.050;2022-11-20T12:14:58;8.30;70.70
37412;DHT22;23278;52.110;6.050;2022-11-20T12:17:24;8.00;70.90
37412;DHT22;23278;52.110;6.050;2022-11-20T12:19:50;7.90;71.30
37412;DHT22;23278;52.110;6.050;2022-11-20T12:22:39;7.60;71.90
37412;DHT22;23278;52.110;6.050;2022-11-20T12:25:14;7.50;72.50
37412;DHT22;23278;52.110;6.050;2022-11-20T12:30:21;7.10;73.50
37412;DHT22;23278;52.110;6.050;2022-11-20T12:33:06;7.00;74.30
37412;DHT22;23278;52.110;6.050;2022-11-20T12:35:48;6.80;74.80
37412;DHT22;23278;52.110;6.050;2022-11-20T12:49:24;6.60;75.90
37412;DHT22;23278;52.110;6.050;2022-11-20T12:52:37;6.60;76.10
37412;DHT22;23278;52.110;6.050;2022-11-20T12:55:04;6.50;76.30
37412;DHT22;23278;52.110;6.050;2022-11-20T12:57:53;6.50;77.10
37412;DHT22;23278;52.110;6.050;2022-11-20T13:00:22;6.40;77.60
37412;DHT22;23278;52.110;6.050;2022-11-20T13:03:04;6.30;78.40
37412;DHT22;23278;52.110;6.050;2022-11-20T13:08:27;6.20;79.90
37412;DHT22;23278;52.110;6.050;2022-11-20T13:19:12;6.10;81.20
37412;DHT22;23278;52.110;6.050;2022-11-20T13:21:46;6.10;81.00
37412;DHT22;23278;52.110;6.050;2022-11-20T13:27:16;6.30;81.70
37412;DHT22;23278;52.110;6.050;2022-11-20T13:29:58;6.30;82.00
37412;DHT22;23278;52.110;6.050;2022-11-20T13:32:26;6.20;82.70
37412;DHT22;23278;52.110;6.050;2022-11-20T13:35:03;6.20;83.20
37412;DHT22;23278;52.110;6.050;2022-11-20T13:37:39;6.10;83.70
37412;DHT22;23278;52.110;6.050;2022-11-20T13:42:40;6.10;84.60
37412;DHT22;23278;52.110;6.050;2022-11-20T13:45:27;6.00;85.20
37412;DHT22;23278;52.110;6.050;2022-11-20T13:47:54;6.00;85.50
37412;DHT22;23278;52.110;6.050;2022-11-20T13:53:33;5.90;87.50
37412;DHT22;23278;52.110;6.050;2022-11-20T13:56:08;5.80;88.50
37412;DHT22;23278;52.110;6.050;2022-11-20T14:01:23;5.70;90.00
37412;DHT22;23278;52.110;6.050;2022-11-20T14:03:50;5.70;90.20
37412;DHT22;23278;52.110;6.050;2022-11-20T14:06:32;5.60;90.60
37412;DHT22;23278;52.110;6.050;2022-11-20T14:08:59;5.60;90.80
37412;DHT22;23278;52.110;6.050;2022-11-20T14:11:29;5.60;91.00
37412;DHT22;23278;52.110;6.050;2022-11-20T14:14:01;5.70;91.10
37412;DHT22;23278;52.110;6.050;2022-11-20T14:16:35;5.60;91.10
37412;DHT22;23278;52.110;6.050;2022-11-20T14:19:25;5.60;91.30
37412;DHT22;23278;52.110;6.050;2022-11-20T14:24:34;5.60;91.70
37412;DHT22;23278;52.110;6.050;2022-11-20T14:27:00;5.50;92.20
37412;DHT22;23278;52.110;6.050;2022-11-20T14:29:36;5.50;92.30
37412;DHT22;23278;52.110;6.050;2022-11-20T14:32:03;5.40;92.50
37412;DHT22;23278;52.110;6.050;2022-11-20T14:34:32;5.40;92.70
37412;DHT22;23278;52.110;6.050;2022-11-20T14:37:01;5.40;93.00
37412;DHT22;23278;52.110;6.050;2022-11-20T14:39:39;5.30;93.30
37412;DHT22;23278;52.110;6.050;2022-11-20T14:44:45;5.30;93.60
37412;DHT22;23278;52.110;6.050;2022-11-20T14:47:17;5.20;93.70
37412;DHT22;23278;52.110;6.050;2022-11-20T14:49:44;5.30;93.80
37412;DHT22;23278;52.110;6.050;2022-11-20T14:52:22;5.30;93.90
37412;DHT22;23278;52.110;6.050;2022-11-20T14:54:53;5.30;94.00
37412;DHT22;23278;52.110;6.050;2022-11-20T14:57:37;5.30;94.20
37412;DHT22;23278;52.110;6.050;2022-11-20T15:00:08;5.30;94.20
37412;DHT22;23278;52.110;6.050;2022-11-20T15:02:48;5.30;94.60
37412;DHT22;23278;52.110;6.050;2022-11-20T15:05:16;5.30;94.60
37412;DHT22;23278;52.110;6.050;2022-11-20T15:07:48;5.30;94.80
37412;DHT22;23278;52.110;6.050;2022-11-20T15:10:22;5.30;95.00
37412;DHT22;23278;52.110;6.050;2022-11-20T15:12:53;5.30;95.10
37412;DHT22;23278;52.110;6.050;2022-11-20T15:15:36;5.30;95.20
37412;DHT22;23278;52.110;6.050;2022-11-20T15:18:05;5.30;95.20
37412;DHT22;23278;52.110;6.050;2022-11-20T15:20:32;5.30;95.30
37412;DHT22;23278;52.110;6.050;2022-11-20T15:22:59;5.20;95.50
37412;DHT22;23278;52.110;6.050;2022-11-20T15:25:25;5.20;95.70
37412;DHT22;23278;52.110;6.050;2022-11-20T15:27:56;5.20;96.00
37412;DHT22;23278;52.110;6.050;2022-11-20T15:30:22;5.10;96.20
37412;DHT22;23278;52.110;6.050;2022-11-20T15:32:48;5.10;96.60
37412;DHT22;23278;52.110;6.050;2022-11-20T15:35:15;5.00;97.10
37412;DHT22;23278;52.110;6.050;2022-11-20T15:37:41;5.00;97.00
37412;DHT22;23278;52.110;6.050;2022-11-20T15:40:08;5.00;97.20
37412;DHT22;23278;52.110;6.050;2022-11-20T15:42:34;5.00;97.50
37412;DHT22;23278;52.110;6.050;2022-11-20T15:45:00;5.00;97.70
37412;DHT22;23278;52.110;6.050;2022-11-20T15:47:34;5.00;97.80
37412;DHT22;23278;52.110;6.050;2022-11-20T15:50:01;4.90;97.90
37412;DHT22;23278;52.110;6.050;2022-11-20T15:52:27;5.00;97.80
37412;DHT22;23278;52.110;6.050;2022-11-20T15:54:53;4.90;98.00
37412;DHT22;23278;52.110;6.050;2022-11-20T15:57:18;4.90;97.90
37412;DHT22;23278;52.110;6.050;2022-11-20T15:59:44;5.00;98.10
37412;DHT22;23278;52.110;6.050;2022-11-20T16:02:11;5.00;98.00
37412;DHT22;23278;52.110;6.050;2022-11-20T16:04:37;5.00;98.10
37412;DHT22;23278;52.110;6.050;2022-11-20T16:07:03;5.00;98.10
37412;DHT22;23278;52.110;6.050;2022-11-20T16:09:29;5.00;98.20
37412;DHT22;23278;52.110;6.050;2022-11-20T16:11:55;5.10;98.30
37412;DHT22;23278;52.110;6.050;2022-11-20T16:14:21;5.10;98.30
37412;DHT22;23278;52.110;6.050;2022-11-20T16:17:05;5.00;98.40
37412;DHT22;23278;52.110;6.050;2022-11-20T16:19:31;5.00;98.40
37412;DHT22;23278;52.110;6.050;2022-11-20T16:21:57;5.10;98.50
37412;DHT22;23278;52.110;6.050;2022-11-20T16:24:26;5.10;98.50
37412;DHT22;23278;52.110;6.050;2022-11-20T16:26:53;5.10;98.50
37412;DHT22;23278;52.110;6.050;2022-11-20T16:29:19;5.10;98.60
37412;DHT22;23278;52.110;6.050;2022-11-20T16:31:45;5.00;98.70
37412;DHT22;23278;52.110;6.050;2022-11-20T16:34:11;5.00;98.80
37412;DHT22;23278;52.110;6.050;2022-11-20T16:36:39;4.90;98.80
37412;DHT22;23278;52.110;6.050;2022-11-20T16:39:05;4.90;99.10
37412;DHT22;23278;52.110;6.050;2022-11-20T16:41:33;4.90;99.10
37412;DHT22;23278;52.110;6.050;2022-11-20T16:44:07;4.80;99.20
37412;DHT22;23278;52.110;6.050;2022-11-20T16:46:34;4.80;99.50
37412;DHT22;23278;52.110;6.050;2022-11-20T16:49:03;4.70;99.40
37412;DHT22;23278;52.110;6.050;2022-11-20T16:51:31;4.70;99.50
37412;DHT22;23278;52.110;6.050;2022-11-20T16:53:57;4.60;99.90
37412;DHT22;23278;52.110;6.050;2022-11-20T16:56:26;4.60;99.90
37412;DHT22;23278;52.110;6.050;2022-11-20T16:58:55;4.60;99.90
37412;DHT22;23278;52.110;6.050;2022-11-20T17:01:22;4.60;99.90
37412;DHT22;23278;52.110;6.050;2022-11-20T17:06:28;4.60;99.90
37412;DHT22;23278;52.110;6.050;2022-11-20T17:08:55;4.60;99.90
37412;DHT22;23278;52.110;6.050;2022-11-20T17:11:22;4.60;99.90
37412;DHT22;23278;52.110;6.050;2022-11-20T17:13:49;4.60;99.90
37412;DHT22;23278;52.110;6.050;2022-11-20T17:16:20;4.60;99.90